createdAt,value
2023-01-27T00:01:14.990Z,6.01
2023-01-27T00:03:42.405Z,5.89
2023-01-27T00:06:12.018Z,6.22
2023-01-27T00:08:39.214Z,6.18
2023-01-27T00:11:25.191Z,6.21
2023-01-27T00:13:52.524Z,6.27
2023-01-27T00:16:19.898Z,6.36
2023-01-27T00:18:47.303Z,6.15
2023-01-27T00:21:33.123Z,5.92
2023-01-27T00:24:19.074Z,5.86
2023-01-27T00:26:46.516Z,5.95
2023-01-27T00:29:13.853Z,5.85
2023-01-27T00:31:59.175Z,5.83
2023-01-27T00:34:26.522Z,6.04
2023-01-27T00:36:53.935Z,5.72
2023-01-27T00:39:21.259Z,6.00
2023-01-27T00:41:48.603Z,6.03
2023-01-27T00:44:16.044Z,5.79
2023-01-27T00:46:43.535Z,5.86
2023-01-27T00:49:13.342Z,5.92
2023-01-27T00:51:40.565Z,5.89
2023-01-27T00:54:08.246Z,6.23
2023-01-27T00:56:35.734Z,6.10
2023-01-27T00:59:03.370Z,6.25
2023-01-27T01:01:31.022Z,6.02
2023-01-27T01:03:59.850Z,5.85
2023-01-27T01:06:27.899Z,5.79
2023-01-27T01:08:57.063Z,5.93
2023-01-27T01:11:25.068Z,6.07
2023-01-27T01:13:54.820Z,5.84
2023-01-27T01:16:24.582Z,6.03
2023-01-27T01:18:51.997Z,5.79
2023-01-27T01:21:20.511Z,5.92
2023-01-27T01:23:47.981Z,6.02
2023-01-27T01:26:17.209Z,6.12
2023-01-27T01:28:45.611Z,5.80
2023-01-27T01:31:20.401Z,6.12
2023-01-27T01:33:48.555Z,5.93
2023-01-27T01:36:19.105Z,6.08
2023-01-27T01:38:46.625Z,5.90
2023-01-27T01:41:24.206Z,6.29
2023-01-27T01:43:52.059Z,6.12
2023-01-27T01:46:20.483Z,6.08
2023-01-27T01:48:56.315Z,6.02
2023-01-27T01:51:44.946Z,6.07
2023-01-27T01:54:21.622Z,5.91
2023-01-27T01:57:07.402Z,5.98
2023-01-27T01:59:44.906Z,5.91
2023-01-27T02:02:18.189Z,5.99
2023-01-27T02:05:00.794Z,5.93
2023-01-27T02:07:53.623Z,6.14
2023-01-27T02:10:23.969Z,6.02
2023-01-27T02:12:51.466Z,5.93
2023-01-27T02:15:19.294Z,6.08
2023-01-27T02:17:47.168Z,5.85
2023-01-27T02:20:29.721Z,5.91
2023-01-27T02:23:14.110Z,5.97
2023-01-27T02:26:07.279Z,5.93
2023-01-27T02:28:34.449Z,5.86
2023-01-27T02:31:02.303Z,5.68
2023-01-27T02:33:29.439Z,5.58
2023-01-27T02:36:17.731Z,5.98
2023-01-27T02:38:50.206Z,5.80
2023-01-27T02:41:20.459Z,5.52
2023-01-27T02:43:49.543Z,5.70
2023-01-27T02:46:17.375Z,5.64
2023-01-27T02:48:44.777Z,5.77
2023-01-27T02:51:12.369Z,5.60
2023-01-27T02:53:43.146Z,5.92
2023-01-27T02:56:10.354Z,5.83
2023-01-27T02:58:37.656Z,5.77
2023-01-27T03:01:12.426Z,5.82
2023-01-27T03:03:47.527Z,5.83
2023-01-27T03:06:19.591Z,5.84
2023-01-27T03:08:46.981Z,5.74
2023-01-27T03:11:35.684Z,5.64
2023-01-27T03:14:04.282Z,5.55
2023-01-27T03:16:50.179Z,5.69
2023-01-27T03:19:17.996Z,5.79
2023-01-27T03:21:45.366Z,5.76
2023-01-27T03:24:13.154Z,5.56
2023-01-27T03:26:40.784Z,5.66
2023-01-27T03:29:28.602Z,5.77
2023-01-27T03:31:56.640Z,5.59
2023-01-27T03:34:24.132Z,5.66
2023-01-27T03:37:15.315Z,5.74
2023-01-27T03:40:02.318Z,5.81
2023-01-27T03:42:48.813Z,6.01
2023-01-27T03:45:34.742Z,6.00
2023-01-27T03:48:02.142Z,6.02
2023-01-27T03:50:37.768Z,7.27
2023-01-27T03:53:05.822Z,5.73
2023-01-27T03:55:35.062Z,5.89
2023-01-27T03:58:19.679Z,5.82
2023-01-27T04:00:53.441Z,5.96
2023-01-27T04:03:40.836Z,5.90
2023-01-27T04:06:33.886Z,5.96
2023-01-27T04:09:01.369Z,5.71
2023-01-27T04:11:48.176Z,5.78
2023-01-27T04:14:16.145Z,5.76
2023-01-27T04:16:43.768Z,5.78
2023-01-27T04:19:12.454Z,5.82
2023-01-27T04:21:40.229Z,5.81
2023-01-27T04:24:17.360Z,5.75
2023-01-27T04:26:45.571Z,5.96
2023-01-27T04:29:13.722Z,5.93
2023-01-27T04:31:41.436Z,5.87
2023-01-27T04:34:08.947Z,5.99
2023-01-27T04:36:36.305Z,5.23
2023-01-27T04:39:03.666Z,5.40
2023-01-27T04:41:30.736Z,5.54
2023-01-27T04:43:58.172Z,5.51
2023-01-27T04:46:25.560Z,5.48
2023-01-27T04:48:52.995Z,5.40
2023-01-27T04:51:20.338Z,5.55
2023-01-27T04:53:47.839Z,5.46
2023-01-27T04:56:29.925Z,5.65
2023-01-27T04:59:06.802Z,5.73
2023-01-27T05:01:34.550Z,5.65
2023-01-27T05:04:02.156Z,5.48
2023-01-27T05:06:29.438Z,5.51
2023-01-27T05:08:56.887Z,5.71
2023-01-27T05:11:24.573Z,5.55
2023-01-27T05:13:51.939Z,5.45
2023-01-27T05:16:20.262Z,5.54
2023-01-27T05:18:49.783Z,5.59
2023-01-27T05:21:21.569Z,5.62
2023-01-27T05:23:49.521Z,5.66
2023-01-27T05:26:21.999Z,5.72
2023-01-27T05:28:50.476Z,5.79
2023-01-27T05:31:24.141Z,5.86
2023-01-27T05:33:53.694Z,5.73
2023-01-27T05:36:23.765Z,5.85
2023-01-27T05:38:51.316Z,5.76
2023-01-27T05:41:19.978Z,5.80
2023-01-27T05:43:52.332Z,5.91
2023-01-27T05:46:24.090Z,6.10
2023-01-27T05:48:56.616Z,5.90
2023-01-27T05:51:25.521Z,5.83
2023-01-27T05:53:54.971Z,5.76
2023-01-27T05:56:22.837Z,5.73
2023-01-27T05:58:50.215Z,5.72
2023-01-27T06:01:24.379Z,5.64
2023-01-27T06:03:52.087Z,5.69
2023-01-27T06:06:22.474Z,5.62
2023-01-27T06:08:50.132Z,5.52
2023-01-27T06:11:19.960Z,5.62
2023-01-27T06:13:47.963Z,5.44
2023-01-27T06:16:18.286Z,5.57
2023-01-27T06:18:46.384Z,5.43
2023-01-27T06:21:15.477Z,5.08
2023-01-27T06:23:43.449Z,5.28
2023-01-27T06:26:17.294Z,5.10
2023-01-27T06:28:44.692Z,5.33
2023-01-27T06:31:18.013Z,5.26
2023-01-27T06:33:45.766Z,5.41
2023-01-27T06:36:16.598Z,5.49
2023-01-27T06:38:44.429Z,5.33
2023-01-27T06:41:11.642Z,5.17
2023-01-27T06:43:39.014Z,5.66
2023-01-27T06:46:06.628Z,5.42
2023-01-27T06:48:34.675Z,5.26
2023-01-27T06:51:02.262Z,5.59
2023-01-27T06:53:29.742Z,5.70
2023-01-27T06:55:59.011Z,5.69
2023-01-27T06:58:26.362Z,5.55
2023-01-27T07:00:54.035Z,5.16
2023-01-27T07:03:21.554Z,5.64
2023-01-27T07:05:48.953Z,5.71
2023-01-27T07:08:16.190Z,5.72
2023-01-27T07:10:43.528Z,5.72
2023-01-27T07:13:13.498Z,5.82
2023-01-27T07:15:41.178Z,5.64
2023-01-27T07:18:09.447Z,5.77
2023-01-27T07:20:36.385Z,5.67
2023-01-27T07:23:05.127Z,5.72
2023-01-27T07:25:34.727Z,5.66
2023-01-27T07:28:03.671Z,5.53
2023-01-27T07:30:32.043Z,5.35
2023-01-27T07:33:08.061Z,5.79
2023-01-27T07:35:37.946Z,5.95
2023-01-27T07:38:06.138Z,5.79
2023-01-27T07:40:33.582Z,5.33
2023-01-27T07:43:01.673Z,5.46
2023-01-27T07:45:29.521Z,5.36
2023-01-27T07:48:08.509Z,5.52
2023-01-27T07:50:36.471Z,5.26
2023-01-27T07:53:05.646Z,5.78
2023-01-27T07:55:36.602Z,5.79
2023-01-27T07:58:03.983Z,5.75
2023-01-27T08:00:31.947Z,5.60
2023-01-27T08:03:00.289Z,5.66
2023-01-27T08:05:28.476Z,5.71
2023-01-27T08:07:58.581Z,5.61
2023-01-27T08:10:26.365Z,5.71
2023-01-27T08:12:53.378Z,5.63
2023-01-27T08:15:20.750Z,5.77
2023-01-27T08:17:58.559Z,5.67
2023-01-27T08:20:27.631Z,5.53
2023-01-27T08:22:55.094Z,5.40
2023-01-27T08:25:22.756Z,5.66
2023-01-27T08:27:54.809Z,5.84
2023-01-27T08:30:22.369Z,5.58
2023-01-27T08:32:49.967Z,5.39
2023-01-27T08:35:17.568Z,5.34
2023-01-27T08:37:48.162Z,5.61
2023-01-27T08:40:16.020Z,5.85
2023-01-27T08:42:43.554Z,5.97
2023-01-27T08:45:10.978Z,5.65
2023-01-27T08:47:38.409Z,5.56
2023-01-27T08:50:06.115Z,5.65
2023-01-27T08:52:33.464Z,5.60
2023-01-27T08:55:00.806Z,5.80
2023-01-27T08:57:28.180Z,5.84
2023-01-27T08:59:55.096Z,5.74
2023-01-27T09:02:24.317Z,5.45
2023-01-27T09:04:51.861Z,5.82
2023-01-27T09:07:19.608Z,5.78
2023-01-27T09:09:47.868Z,6.01
2023-01-27T09:12:15.249Z,5.66
2023-01-27T09:14:42.256Z,5.50
2023-01-27T09:17:09.565Z,5.35
2023-01-27T09:19:37.056Z,5.65
2023-01-27T09:22:05.233Z,5.78
2023-01-27T09:24:32.185Z,5.66
2023-01-27T09:27:00.987Z,5.48
2023-01-27T09:29:29.336Z,5.51
2023-01-27T09:31:56.763Z,5.50
2023-01-27T09:34:24.186Z,5.62
2023-01-27T09:36:57.570Z,5.54
2023-01-27T09:39:25.828Z,5.46
2023-01-27T09:42:30.615Z,5.73
2023-01-27T09:45:31.976Z,5.22
2023-01-27T09:48:36.189Z,5.92
2023-01-27T09:51:53.771Z,5.84
2023-01-27T09:54:54.756Z,5.87
2023-01-27T09:57:49.780Z,5.93
2023-01-27T10:00:47.317Z,6.21
2023-01-27T10:04:06.000Z,6.19
2023-01-27T10:06:45.111Z,6.12
2023-01-27T10:09:57.482Z,6.17
2023-01-27T10:13:13.248Z,5.67
2023-01-27T10:15:45.011Z,5.59
2023-01-27T10:18:35.171Z,5.98
2023-01-27T10:21:17.606Z,5.45
2023-01-27T10:24:39.898Z,5.42
2023-01-27T10:27:21.587Z,5.81
2023-01-27T10:30:35.002Z,5.78
2023-01-27T10:33:19.108Z,6.26
2023-01-27T10:35:59.491Z,6.08
2023-01-27T10:39:03.797Z,6.25
2023-01-27T10:42:13.614Z,6.26
2023-01-27T10:45:22.638Z,6.24
2023-01-27T10:47:55.238Z,6.29
2023-01-27T10:50:58.117Z,6.34
2023-01-27T10:53:44.116Z,6.29
2023-01-27T10:56:25.808Z,5.74
2023-01-27T10:59:34.885Z,5.85
2023-01-27T11:02:24.234Z,6.04
2023-01-27T11:05:02.752Z,6.30
2023-01-27T11:07:32.522Z,6.38
2023-01-27T11:10:06.040Z,6.38
2023-01-27T11:12:37.718Z,6.46
2023-01-27T11:15:34.790Z,6.27
2023-01-27T11:18:21.083Z,6.04
2023-01-27T11:20:54.587Z,6.06
2023-01-27T11:23:29.476Z,6.16
2023-01-27T11:26:25.230Z,5.96
2023-01-27T11:29:18.747Z,6.06
2023-01-27T11:32:05.849Z,5.74
2023-01-27T11:35:04.535Z,6.13
2023-01-27T11:37:33.012Z,5.84
2023-01-27T11:40:00.635Z,5.45
2023-01-27T11:42:33.795Z,5.48
2023-01-27T11:45:02.011Z,5.44
2023-01-27T11:47:35.121Z,5.61
2023-01-27T11:50:04.504Z,5.84
2023-01-27T11:52:32.649Z,5.56
2023-01-27T11:55:07.660Z,5.94
2023-01-27T11:57:38.038Z,5.74
2023-01-27T12:00:19.716Z,5.60
2023-01-27T12:02:55.251Z,5.64
2023-01-27T12:05:32.364Z,6.07
2023-01-27T12:08:05.353Z,5.64
2023-01-27T12:10:44.119Z,5.52
2023-01-27T12:13:19.753Z,5.85
2023-01-27T12:15:58.188Z,5.86
2023-01-27T12:18:25.462Z,5.65
2023-01-27T12:21:08.281Z,6.04
2023-01-27T12:23:40.289Z,5.99
2023-01-27T12:26:10.241Z,6.09
2023-01-27T12:28:41.641Z,6.14
2023-01-27T12:31:13.360Z,6.18
2023-01-27T12:33:55.901Z,6.44
2023-01-27T12:36:23.838Z,6.55
2023-01-27T12:39:00.116Z,6.42
2023-01-27T12:41:36.720Z,6.09
2023-01-27T12:44:18.213Z,6.19
2023-01-27T12:47:19.584Z,5.78
2023-01-27T12:49:46.907Z,5.89
2023-01-27T12:52:20.317Z,6.13
2023-01-27T12:54:47.857Z,5.52
2023-01-27T12:57:20.824Z,5.85
2023-01-27T12:59:58.582Z,5.67
2023-01-27T13:02:36.113Z,5.58
2023-01-27T13:05:08.128Z,5.45
2023-01-27T13:07:48.019Z,5.65
2023-01-27T13:10:24.191Z,5.33
2023-01-27T13:12:52.457Z,6.83
2023-01-27T13:15:22.541Z,5.67
2023-01-27T13:17:52.200Z,5.67
2023-01-27T13:20:43.238Z,5.72
2023-01-27T13:23:16.399Z,5.29
2023-01-27T13:26:00.770Z,5.82
2023-01-27T13:28:59.913Z,5.93
2023-01-27T13:32:04.732Z,5.59
2023-01-27T13:34:45.717Z,5.52
2023-01-27T13:37:20.481Z,5.81
2023-01-27T13:40:10.036Z,5.35
2023-01-27T13:43:24.146Z,5.35
2023-01-27T13:46:17.127Z,5.39
2023-01-27T13:48:47.666Z,5.55
2023-01-27T13:51:18.396Z,5.69
2023-01-27T13:53:47.712Z,5.85
2023-01-27T13:56:20.796Z,5.86
2023-01-27T13:59:20.650Z,5.50
2023-01-27T14:01:54.457Z,5.64
2023-01-27T14:04:34.276Z,5.60
2023-01-27T14:07:57.706Z,5.74
2023-01-27T14:10:35.079Z,5.64
2023-01-27T14:13:44.177Z,5.81
2023-01-27T14:16:32.078Z,5.41
2023-01-27T14:19:23.612Z,5.68
2023-01-27T14:22:09.630Z,5.77
2023-01-27T14:24:56.529Z,5.48
2023-01-27T14:27:36.793Z,5.53
2023-01-27T14:30:33.302Z,5.71
2023-01-27T14:33:46.660Z,5.66
2023-01-27T14:36:27.614Z,5.49
2023-01-27T14:39:23.467Z,5.66
2023-01-27T14:42:42.863Z,5.84
2023-01-27T14:45:40.550Z,6.18
2023-01-27T14:48:45.880Z,5.94
2023-01-27T14:51:33.463Z,5.51
2023-01-27T14:54:40.054Z,5.91
2023-01-27T14:57:11.383Z,5.80
2023-01-27T14:59:47.736Z,5.90
2023-01-27T15:02:48.185Z,5.85
2023-01-27T15:05:43.947Z,5.88
2023-01-27T15:08:42.916Z,5.53
2023-01-27T15:11:18.660Z,5.30
2023-01-27T15:14:16.282Z,5.67
2023-01-27T15:17:37.524Z,5.81
2023-01-27T15:20:21.198Z,5.43
2023-01-27T15:23:23.566Z,5.82
2023-01-27T15:26:00.266Z,5.93
2023-01-27T15:28:35.742Z,5.76
2023-01-27T15:31:14.977Z,5.79
2023-01-27T15:33:53.258Z,5.81
2023-01-27T15:36:32.058Z,5.92
2023-01-27T15:39:11.276Z,5.93
2023-01-27T15:41:51.970Z,5.89
2023-01-27T15:44:25.153Z,5.71
2023-01-27T15:46:54.733Z,5.44
2023-01-27T15:49:27.837Z,5.80
2023-01-27T15:52:29.723Z,5.95
2023-01-27T15:55:01.404Z,5.67
2023-01-27T15:57:39.152Z,5.70
2023-01-27T16:00:22.588Z,5.66
2023-01-27T16:02:54.423Z,5.57
2023-01-27T16:05:38.387Z,5.79
2023-01-27T16:08:13.500Z,5.86
2023-01-27T16:10:41.455Z,5.79
2023-01-27T16:13:28.514Z,6.05
2023-01-27T16:16:17.123Z,6.08
2023-01-27T16:18:52.526Z,6.08
2023-01-27T16:21:57.444Z,6.23
2023-01-27T16:24:43.466Z,5.89
2023-01-27T16:27:34.704Z,5.94
2023-01-27T16:30:22.088Z,6.12
2023-01-27T16:32:58.402Z,6.00
2023-01-27T16:35:26.536Z,5.71
2023-01-27T16:38:18.459Z,6.06
2023-01-27T16:40:54.305Z,6.04
2023-01-27T16:43:29.913Z,6.06
2023-01-27T16:46:00.257Z,6.06
2023-01-27T16:48:45.578Z,6.13
2023-01-27T16:51:21.135Z,5.99
2023-01-27T16:53:51.227Z,6.09
2023-01-27T16:56:26.717Z,6.10
2023-01-27T16:59:02.674Z,6.24
2023-01-27T17:01:48.624Z,6.20
2023-01-27T17:04:28.068Z,6.16
2023-01-27T17:07:11.759Z,6.05
2023-01-27T17:10:00.842Z,6.15
2023-01-27T17:12:36.208Z,5.97
2023-01-27T17:15:20.184Z,6.24
2023-01-27T17:17:49.443Z,6.14
2023-01-27T17:20:46.287Z,6.34
2023-01-27T17:23:43.447Z,6.26
2023-01-27T17:26:16.630Z,6.23
2023-01-27T17:28:46.329Z,6.20
2023-01-27T17:31:19.759Z,6.28
2023-01-27T17:33:50.275Z,6.32
2023-01-27T17:36:17.627Z,6.20
2023-01-27T17:38:48.693Z,6.30
2023-01-27T17:41:37.451Z,6.38
2023-01-27T17:44:12.769Z,6.26
2023-01-27T17:46:40.395Z,6.14
2023-01-27T17:49:14.772Z,6.29
2023-01-27T17:51:46.421Z,6.36
2023-01-27T17:54:31.031Z,6.45
2023-01-27T17:57:13.352Z,6.36
2023-01-27T17:59:46.402Z,6.35
2023-01-27T18:02:28.875Z,6.43
2023-01-27T18:04:59.675Z,6.55
2023-01-27T18:07:28.321Z,6.24
2023-01-27T18:09:56.287Z,6.33
2023-01-27T18:12:37.680Z,6.40
2023-01-27T18:15:42.911Z,6.48
2023-01-27T18:18:18.747Z,6.32
2023-01-27T18:20:53.637Z,6.34
2023-01-27T18:23:28.723Z,5.71
2023-01-27T18:26:46.867Z,6.27
2023-01-27T18:29:20.069Z,6.23
2023-01-27T18:31:59.469Z,6.28
2023-01-27T18:34:33.634Z,6.30
2023-01-27T18:37:22.957Z,6.32
2023-01-27T18:39:50.070Z,6.24
2023-01-27T18:42:19.813Z,6.24
2023-01-27T18:44:51.115Z,6.06
2023-01-27T18:47:18.384Z,5.96
2023-01-27T18:50:26.534Z,6.15
2023-01-27T18:52:54.167Z,6.10
2023-01-27T18:55:31.172Z,6.20
2023-01-27T18:58:00.050Z,5.65
2023-01-27T19:00:45.631Z,6.08
2023-01-27T19:03:19.699Z,6.01
2023-01-27T19:05:48.645Z,5.86
2023-01-27T19:08:23.371Z,6.20
2023-01-27T19:10:51.728Z,5.88
2023-01-27T19:13:19.549Z,6.07
2023-01-27T19:15:53.631Z,6.23
2023-01-27T19:18:32.284Z,6.31
2023-01-27T19:20:59.869Z,6.24
2023-01-27T19:23:28.456Z,6.26
2023-01-27T19:25:58.592Z,6.36
2023-01-27T19:28:28.501Z,6.32
2023-01-27T19:30:55.907Z,5.97
2023-01-27T19:33:25.149Z,6.26
2023-01-27T19:36:16.613Z,6.22
2023-01-27T19:38:43.942Z,6.18
2023-01-27T19:41:12.383Z,6.17
2023-01-27T19:43:41.154Z,6.23
2023-01-27T19:46:18.125Z,6.28
2023-01-27T19:48:45.444Z,6.10
2023-01-27T19:51:12.413Z,5.78
2023-01-27T19:53:39.794Z,6.04
2023-01-27T19:56:19.443Z,6.15
2023-01-27T19:58:52.654Z,6.02
2023-01-27T20:01:22.383Z,6.13
2023-01-27T20:03:52.813Z,5.81
2023-01-27T20:06:26.727Z,6.18
2023-01-27T20:08:59.877Z,5.68
2023-01-27T20:11:36.066Z,5.78
2023-01-27T20:14:16.796Z,6.10
2023-01-27T20:16:43.939Z,6.13
2023-01-27T20:19:15.106Z,6.19
2023-01-27T20:21:46.425Z,6.05
2023-01-27T20:24:18.901Z,6.21
2023-01-27T20:26:46.805Z,5.17
2023-01-27T20:29:14.030Z,5.89
2023-01-27T20:31:41.915Z,6.01
2023-01-27T20:34:09.404Z,6.03
2023-01-27T20:36:36.694Z,6.14
2023-01-27T20:39:04.259Z,6.25
2023-01-27T20:41:31.655Z,6.21
2023-01-27T20:44:02.685Z,6.12
2023-01-27T20:46:30.576Z,6.07
2023-01-27T20:48:59.460Z,6.26
2023-01-27T20:51:27.028Z,6.14
2023-01-27T20:53:54.104Z,6.19
2023-01-27T20:56:24.507Z,6.26
2023-01-27T20:58:51.965Z,6.01
2023-01-27T21:01:22.207Z,6.28
2023-01-27T21:03:50.560Z,5.95
2023-01-27T21:06:19.933Z,6.26
2023-01-27T21:08:49.027Z,6.34
2023-01-27T21:11:18.378Z,6.12
2023-01-27T21:13:45.998Z,6.14
2023-01-27T21:16:13.531Z,6.10
2023-01-27T21:18:41.249Z,6.03
2023-01-27T21:21:14.597Z,6.11
2023-01-27T21:23:41.917Z,6.16
2023-01-27T21:26:09.753Z,5.47
2023-01-27T21:28:37.126Z,5.95
2023-01-27T21:31:09.805Z,6.20
2023-01-27T21:33:38.685Z,6.08
2023-01-27T21:36:10.326Z,6.04
2023-01-27T21:38:38.601Z,6.05
2023-01-27T21:41:14.338Z,5.81
2023-01-27T21:43:59.517Z,5.84
2023-01-27T21:46:26.856Z,6.21
2023-01-27T21:48:54.222Z,6.06
2023-01-27T21:51:21.803Z,5.65
2023-01-27T21:53:49.112Z,5.70
2023-01-27T21:56:16.422Z,5.87
2023-01-27T21:58:43.355Z,5.96
2023-01-27T22:01:11.010Z,6.09
2023-01-27T22:03:38.624Z,6.05
2023-01-27T22:06:07.712Z,6.09
2023-01-27T22:08:35.776Z,5.89
2023-01-27T22:11:10.925Z,6.13
2023-01-27T22:13:39.038Z,6.03
2023-01-27T22:16:06.934Z,6.17
2023-01-27T22:18:34.431Z,6.24
2023-01-27T22:21:02.302Z,5.82
2023-01-27T22:23:29.685Z,6.25
2023-01-27T22:25:57.082Z,6.35
2023-01-27T22:28:25.416Z,6.29
2023-01-27T22:30:52.866Z,6.25
2023-01-27T22:33:20.281Z,6.28
2023-01-27T22:35:47.618Z,6.25
2023-01-27T22:38:14.672Z,6.32
2023-01-27T22:40:42.120Z,5.98
2023-01-27T22:43:10.596Z,6.21
2023-01-27T22:45:40.911Z,6.32
2023-01-27T22:48:08.779Z,6.15
2023-01-27T22:50:37.055Z,6.19
2023-01-27T22:53:05.342Z,6.07
2023-01-27T22:55:33.161Z,6.21
2023-01-27T22:58:01.426Z,6.19
2023-01-27T23:00:28.445Z,6.23
2023-01-27T23:02:55.775Z,5.95
2023-01-27T23:05:22.840Z,5.83
2023-01-27T23:07:50.180Z,5.60
2023-01-27T23:10:17.442Z,5.62
2023-01-27T23:12:44.815Z,5.75
2023-01-27T23:15:12.258Z,5.81
2023-01-27T23:17:39.630Z,6.05
2023-01-27T23:20:07.788Z,6.31
2023-01-27T23:22:38.399Z,6.49
2023-01-27T23:25:06.726Z,6.29
2023-01-27T23:27:34.323Z,6.26
2023-01-27T23:30:01.842Z,6.24
2023-01-27T23:32:29.208Z,6.17
2023-01-27T23:34:56.541Z,6.13
2023-01-27T23:37:23.879Z,6.05
2023-01-27T23:39:50.839Z,6.12
2023-01-27T23:42:18.450Z,6.24
2023-01-27T23:44:46.750Z,6.17
2023-01-27T23:47:15.469Z,5.95
2023-01-27T23:49:42.817Z,5.95
2023-01-27T23:52:10.133Z,6.06
2023-01-27T23:54:37.450Z,6.26
2023-01-27T23:57:04.894Z,6.15
2023-01-27T23:59:31.821Z,6.13
